Time;durP1;ratioP1;P1;durP2;ratioP2;P2;SDS_P1;SDS_P2;PMS_P1;PMS_P2;Temp;Humidity;BMP_temperature;BMP_pressure;BME280_temperature;BME280_humidity;BME280_pressure;Samples;Min_cycle;Max_cycle;Signal;HPM_P1;HPM_P2
2021/11/14 00:05:31;;;;;;;134.20;61.85;;;;;;;3.42;97.06;99351.64;4052994;86;21028;-81
2021/11/14 00:11:33;;;;;;;135.07;62.35;;;;;;;3.48;96.96;99350.36;4052795;86;21072;-81
2021/11/14 00:17:34;;;;;;;134.93;59.38;;;;;;;3.50;96.75;99355.45;4052530;86;21045;-81
2021/11/14 00:23:36;;;;;;;146.35;64.37;;;;;;;3.47;96.79;99352.03;4045937;86;21014;-81
2021/11/14 00:29:37;;;;;;;139.90;61.75;;;;;;;3.48;97.03;99346.30;4023411;87;21003;-81
2021/11/14 00:35:40;;;;;;;134.22;60.60;;;;;;;3.56;96.82;99356.88;4023130;87;20999;-82
2021/11/14 00:41:41;;;;;;;139.37;62.67;;;;;;;3.51;96.82;99350.30;4020703;87;21008;-81
2021/11/14 00:47:43;;;;;;;149.00;67.27;;;;;;;3.46;96.93;99349.88;4025810;87;21004;-82
2021/11/14 00:53:45;;;;;;;138.50;65.65;;;;;;;3.55;97.09;99353.94;4020406;87;21047;-81
2021/11/14 00:59:46;;;;;;;142.45;63.10;;;;;;;3.59;96.97;99348.11;4019376;87;21647;-81
2021/11/14 01:05:47;;;;;;;141.62;65.20;;;;;;;3.61;97.00;99350.76;4023979;87;21080;-81
2021/11/14 01:11:49;;;;;;;142.28;64.82;;;;;;;3.64;97.00;99352.02;4023189;87;21096;-81
2021/11/14 01:17:51;;;;;;;133.65;60.15;;;;;;;3.66;96.92;99351.14;4021709;86;21476;-81
2021/11/14 01:23:55;;;;;;;130.90;60.73;;;;;;;3.61;96.86;99351.30;4023635;86;21003;-81
2021/11/14 01:29:55;;;;;;;137.68;61.08;;;;;;;3.59;96.98;99358.94;4021928;87;21413;-81
2021/11/14 01:35:58;;;;;;;145.10;63.50;;;;;;;3.66;97.16;99371.45;4023312;87;21063;-81
2021/11/14 01:41:59;;;;;;;144.62;63.00;;;;;;;3.68;97.16;99365.16;4021477;87;21041;-81
2021/11/14 01:48:01;;;;;;;129.23;58.85;;;;;;;3.72;97.36;99357.98;4021181;87;21055;-81
2021/11/14 01:54:03;;;;;;;121.22;58.35;;;;;;;3.81;97.33;99356.05;4024984;87;21014;-81
2021/11/14 02:00:16;;;;;;;138.85;63.78;;;;;;;3.73;96.95;99345.47;4022607;87;21091;-81
2021/11/14 02:06:20;;;;;;;131.47;61.88;;;;;;;3.77;97.31;99345.63;4020635;87;21503;-81
2021/11/14 02:12:21;;;;;;;125.15;57.93;;;;;;;3.81;97.34;99354.14;4024643;87;21014;-81
2021/11/14 02:18:23;;;;;;;133.52;59.27;;;;;;;3.82;97.35;99365.78;4010662;87;21555;-81
2021/11/14 02:24:25;;;;;;;132.18;61.33;;;;;;;3.89;97.36;99367.42;4028390;86;21083;-81
2021/11/14 02:30:27;;;;;;;139.85;63.30;;;;;;;3.92;97.27;99364.88;4053919;86;21060;-81
2021/11/14 02:36:28;;;;;;;137.20;60.52;;;;;;;3.91;97.22;99366.55;4058991;86;21026;-81
2021/11/14 02:42:29;;;;;;;125.95;57.58;;;;;;;3.94;97.18;99371.32;4057044;86;21103;-81
2021/11/14 02:48:31;;;;;;;135.45;60.98;;;;;;;3.89;97.18;99368.23;4057785;86;21622;-81
2021/11/14 02:54:33;;;;;;;122.55;58.52;;;;;;;3.92;97.19;99372.19;4057490;86;20979;-81
2021/11/14 03:00:42;;;;;;;118.97;57.93;;;;;;;3.90;97.25;99371.74;4063321;86;21516;-81
2021/11/14 03:06:45;;;;;;;132.95;61.58;;;;;;;3.94;97.39;99380.80;4055419;86;21007;-82
2021/11/14 03:13:07;;;;;;;137.50;63.35;;;;;;;3.95;97.10;99377.77;4058677;86;20964;-82
2021/11/14 03:19:08;;;;;;;123.13;58.35;;;;;;;3.93;97.21;99375.94;4057763;86;21456;-81
2021/11/14 03:25:10;;;;;;;137.47;59.35;;;;;;;3.92;97.15;99376.26;4054552;86;21061;-81
2021/11/14 03:31:12;;;;;;;111.60;53.68;;;;;;;3.88;97.13;99380.73;4057083;86;21099;-81
2021/11/14 03:37:17;;;;;;;114.22;55.35;;;;;;;3.90;97.51;99387.41;4059984;86;21035;-81
2021/11/14 03:43:18;;;;;;;115.32;52.98;;;;;;;3.93;97.28;99384.64;4061098;86;21079;-81
2021/11/14 03:49:20;;;;;;;107.63;49.83;;;;;;;3.96;97.36;99386.70;4039211;86;24533;-81
2021/11/14 03:55:21;;;;;;;112.03;53.30;;;;;;;4.00;97.25;99393.05;3983653;87;21660;-81
2021/11/14 04:01:24;;;;;;;106.90;51.50;;;;;;;4.00;97.17;99392.50;3983311;87;21068;-81
2021/11/14 04:07:25;;;;;;;108.15;49.88;;;;;;;4.03;97.22;99392.41;3982461;87;21003;-81
2021/11/14 04:13:30;;;;;;;99.95;49.20;;;;;;;4.01;96.91;99401.44;3980857;87;21027;-81
2021/11/14 04:19:31;;;;;;;106.15;48.78;;;;;;;4.02;96.93;99407.08;3976479;87;21007;-81
2021/11/14 04:25:34;;;;;;;96.15;44.75;;;;;;;4.00;96.87;99406.59;4007288;86;21466;-81
2021/11/14 04:31:35;;;;;;;99.83;47.23;;;;;;;4.01;96.93;99412.27;4073019;86;21042;-81
2021/11/14 04:37:36;;;;;;;104.72;48.48;;;;;;;3.94;96.63;99416.02;4076020;86;21002;-81
2021/11/14 04:43:38;;;;;;;105.35;48.58;;;;;;;3.92;96.64;99427.72;4075996;86;21387;-81
2021/11/14 04:49:40;;;;;;;94.55;45.15;;;;;;;3.88;96.52;99422.17;4075667;86;21962;-81
2021/11/14 04:55:42;;;;;;;107.58;49.90;;;;;;;3.82;96.54;99426.12;4077298;86;21010;-81
2021/11/14 05:01:44;;;;;;;103.22;48.33;;;;;;;3.78;96.43;99435.22;4074230;86;21011;-81
2021/11/14 05:07:45;;;;;;;103.20;46.65;;;;;;;3.71;96.35;99444.39;4076745;86;21594;-81
2021/11/14 05:13:46;;;;;;;115.35;49.98;;;;;;;3.60;96.31;99449.89;4077336;86;21050;-81
2021/11/14 05:19:48;;;;;;;103.58;47.62;;;;;;;3.56;96.37;99448.91;4075870;86;20995;-81
2021/11/14 05:25:49;;;;;;;101.60;46.13;;;;;;;3.50;96.25;99459.11;4076046;86;21489;-81
2021/11/14 05:31:51;;;;;;;106.97;49.25;;;;;;;3.49;96.22;99467.55;4073208;86;21023;-81
2021/11/14 05:37:52;;;;;;;105.65;47.08;;;;;;;3.45;96.21;99472.80;4074723;86;21563;-81
2021/11/14 05:43:54;;;;;;;111.15;49.42;;;;;;;3.43;96.20;99473.66;4074587;86;20967;-81
2021/11/14 05:49:56;;;;;;;102.22;45.52;;;;;;;3.43;96.15;99475.59;4073362;86;21547;-81
2021/11/14 05:55:57;;;;;;;95.90;45.73;;;;;;;3.41;96.20;99476.45;4076296;86;21475;-81
2021/11/14 06:02:13;;;;;;;115.88;49.75;;;;;;;3.40;96.33;99481.05;4072843;86;21568;-81
2021/11/14 06:08:11;;;;;;;109.72;51.42;;;;;;;3.44;96.34;99488.80;4072892;86;21495;-80
2021/11/14 06:14:13;;;;;;;117.37;52.62;;;;;;;3.46;96.35;99502.02;4074830;86;21429;-81
2021/11/14 06:20:16;;;;;;;108.70;49.35;;;;;;;3.46;96.47;99510.14;4075036;86;21035;-80
2021/11/14 06:26:18;;;;;;;111.95;49.40;;;;;;;3.52;96.64;99521.86;4061199;86;21102;-81
2021/11/14 06:32:19;;;;;;;112.57;47.50;;;;;;;3.62;96.73;99532.95;4076501;86;21542;-80
2021/11/14 06:38:20;;;;;;;106.05;46.58;;;;;;;3.68;96.76;99535.73;4075267;86;21015;-81
2021/11/14 06:44:21;;;;;;;120.82;50.98;;;;;;;3.76;97.06;99546.56;4076915;86;20991;-81
2021/11/14 06:50:23;;;;;;;106.32;49.83;;;;;;;3.86;96.91;99554.94;4072634;86;20995;-81
2021/11/14 07:03:12;;;;;;;105.83;47.17;;;;;;;4.07;96.74;99564.05;4667431;74;22699;-81
2021/11/14 07:09:14;;;;;;;105.10;45.85;;;;;;;4.06;96.58;99565.15;4580940;75;21097;-81
2021/11/14 07:15:16;;;;;;;114.32;49.45;;;;;;;4.01;96.56;99572.88;4582450;75;21453;-81
2021/11/14 07:21:18;;;;;;;105.70;46.88;;;;;;;4.04;96.44;99581.72;4568953;75;21558;-81
2021/11/14 07:27:20;;;;;;;104.53;47.10;;;;;;;4.12;96.45;99585.58;4597988;75;20994;-82
2021/11/14 07:33:21;;;;;;;121.65;50.38;;;;;;;4.18;96.46;99585.66;4566023;75;21769;-82
2021/11/14 07:39:22;;;;;;;112.30;48.28;;;;;;;4.26;96.60;99589.70;4581826;75;21031;-82
2021/11/14 07:45:27;;;;;;;104.35;45.83;;;;;;;4.31;96.35;99588.20;4604524;75;21034;-82
2021/11/14 07:51:29;;;;;;;106.78;46.75;;;;;;;4.39;96.35;99585.23;4585970;75;21003;-82
2021/11/14 07:57:30;;;;;;;110.97;48.08;;;;;;;4.45;96.43;99585.31;4569853;75;21011;-82
2021/11/14 08:09:52;;;;;;;113.32;48.85;;;;;;;4.60;96.07;99592.39;4448875;78;22954;-82
2021/11/14 08:15:53;;;;;;;101.85;45.83;;;;;;;4.68;96.11;99593.52;4389191;80;21430;-82
2021/11/14 08:21:54;;;;;;;102.72;47.38;;;;;;;4.74;96.08;99602.50;4390059;80;21890;-82
2021/11/14 08:27:56;;;;;;;102.50;47.58;;;;;;;4.87;96.05;99612.15;4392488;80;21386;-81
2021/11/14 08:34:00;;;;;;;106.27;44.95;;;;;;;4.98;95.90;99609.33;4392523;80;21028;-82
2021/11/14 08:40:03;;;;;;;112.50;49.03;;;;;;;5.12;95.95;99612.64;4393554;80;21024;-81
2021/11/14 08:46:06;;;;;;;99.72;45.60;;;;;;;5.24;95.87;99614.92;4383339;80;21567;-82
2021/11/14 08:52:09;;;;;;;104.12;46.28;;;;;;;5.38;95.74;99624.20;4386246;80;21078;-82
2021/11/14 08:58:11;;;;;;;100.53;46.33;;;;;;;5.44;95.36;99631.84;4386719;80;21073;-82
2021/11/14 09:04:12;;;;;;;100.25;44.60;;;;;;;5.52;95.30;99635.09;4386809;80;21064;-81
2021/11/14 09:10:14;;;;;;;102.07;44.93;;;;;;;5.63;95.46;99630.89;4382634;80;20987;-82
2021/11/14 09:16:16;;;;;;;97.00;41.33;;;;;;;5.71;95.09;99631.41;4382617;80;21487;-82
2021/11/14 09:22:17;;;;;;;97.62;43.15;;;;;;;5.72;94.86;99630.28;4390794;80;21032;-82
2021/11/14 09:28:18;;;;;;;89.30;40.40;;;;;;;5.79;94.88;99631.94;4381509;80;21021;-82
2021/11/14 09:34:20;;;;;;;93.58;41.60;;;;;;;5.85;94.54;99642.87;4377765;80;21602;-81
2021/11/14 09:40:21;;;;;;;93.82;41.65;;;;;;;5.86;94.37;99643.65;4382092;80;21062;-82
2021/11/14 09:46:22;;;;;;;95.47;43.98;;;;;;;5.88;94.24;99642.77;4388655;80;20996;-81
2021/11/14 09:52:26;;;;;;;103.32;43.52;;;;;;;5.97;94.42;99642.95;4376789;80;21054;-82
2021/11/14 09:58:27;;;;;;;105.65;44.48;;;;;;;6.02;94.22;99644.69;4388359;80;21331;-82
2021/11/14 10:04:29;;;;;;;99.20;44.27;;;;;;;6.06;94.14;99648.36;4382180;80;21078;-82
2021/11/14 10:10:36;;;;;;;110.40;45.45;;;;;;;6.06;94.07;99648.36;4382031;80;22246;-83
2021/11/14 10:16:39;;;;;;;100.78;45.58;;;;;;;6.09;93.86;99649.83;4376712;80;21085;-83
2021/11/14 10:22:48;;;;;;;95.28;46.55;;;;;;;6.07;93.66;99656.18;4384192;80;21507;-82
2021/11/14 10:28:49;;;;;;;90.97;43.13;;;;;;;6.11;93.71;99652.22;4381813;80;22203;-82
2021/11/14 10:35:04;;;;;;;89.95;42.45;;;;;;;6.12;93.48;99663.34;4375588;80;21040;-82
2021/11/14 10:41:10;;;;;;;87.88;43.80;;;;;;;6.19;93.44;99667.69;4381494;80;20991;-82
2021/11/14 10:47:13;;;;;;;66.90;30.83;;;;;;;6.29;93.31;99676.27;4384443;80;21026;-82
2021/11/14 10:53:19;;;;;;;91.53;42.13;;;;;;;6.30;92.95;99669.70;4382151;80;21062;-82
2021/11/14 10:59:20;;;;;;;81.50;40.12;;;;;;;6.36;92.91;99675.72;4378730;80;21044;-82
2021/11/14 11:05:26;;;;;;;96.37;46.18;;;;;;;6.46;92.80;99671.81;4375361;80;21082;-82
2021/11/14 11:11:28;;;;;;;99.55;44.98;;;;;;;6.52;92.72;99671.29;4403535;80;21023;-81
2021/11/14 11:17:48;;;;;;;106.90;48.63;;;;;;;6.60;92.63;99664.19;4414377;80;20994;-82
2021/11/14 11:23:50;;;;;;;101.00;46.95;;;;;;;6.63;92.32;99671.68;4418740;80;21014;-81
2021/11/14 11:29:52;;;;;;;105.95;48.35;;;;;;;6.66;92.39;99670.46;4406736;80;21047;-82
2021/11/14 11:35:55;;;;;;;102.22;47.15;;;;;;;6.70;92.31;99665.96;4426104;80;21443;-82
2021/11/14 11:42:00;;;;;;;90.22;42.30;;;;;;;6.74;91.96;99667.43;4417151;80;21022;-81
2021/11/14 11:48:06;;;;;;;96.72;45.28;;;;;;;6.76;92.02;99673.34;4412466;80;21538;-81
2021/11/14 11:54:16;;;;;;;91.02;45.70;;;;;;;6.76;91.64;99671.98;4415366;80;21561;-82
2021/11/14 12:00:18;;;;;;;101.38;48.73;;;;;;;6.74;91.59;99675.59;4414003;80;21649;-82
2021/11/14 12:06:29;;;;;;;106.85;50.10;;;;;;;6.71;91.39;99680.34;4399679;80;21082;-82
2021/11/14 12:12:38;;;;;;;93.33;45.43;;;;;;;6.73;91.47;99675.38;4383472;80;21089;-81
2021/11/14 12:18:41;;;;;;;98.40;47.35;;;;;;;6.71;91.42;99679.78;4395084;80;21064;-82
2021/11/14 12:24:59;;;;;;;94.55;44.55;;;;;;;6.68;91.32;99686.45;4388591;80;21511;-82
2021/11/14 12:31:08;;;;;;;104.38;48.87;;;;;;;6.71;91.04;99693.95;4389021;80;21056;-82
2021/11/14 12:37:14;;;;;;;97.00;45.00;;;;;;;6.74;90.84;99704.16;4384268;80;21566;-82
2021/11/14 12:43:24;;;;;;;97.33;44.75;;;;;;;6.76;90.95;99700.00;4393452;80;21028;-82
2021/11/14 12:49:37;;;;;;;95.97;47.85;;;;;;;6.78;90.67;99705.11;4256481;81;22285;-81
2021/11/14 12:55:41;;;;;;;98.60;45.92;;;;;;;6.76;90.56;99705.44;4246323;83;21047;-82
2021/11/14 13:01:45;;;;;;;102.58;47.00;;;;;;;6.74;90.60;99702.25;4247197;83;21054;-82
2021/11/14 13:07:59;;;;;;;101.18;48.02;;;;;;;6.73;90.47;99706.11;4224988;83;21052;-82
2021/11/14 13:14:14;;;;;;;100.20;49.63;;;;;;;6.71;90.43;99706.19;4242944;83;21088;-82
2021/11/14 13:20:20;;;;;;;100.87;48.05;;;;;;;6.66;90.32;99710.46;4185110;84;21038;-81
2021/11/14 13:26:24;;;;;;;76.70;35.10;;;;;;;6.66;90.25;99714.55;4253106;82;21772;-82
2021/11/14 13:32:30;;;;;;;95.25;46.77;;;;;;;6.63;90.17;99717.92;4246034;82;21552;-82
2021/11/14 13:38:42;;;;;;;88.90;43.73;;;;;;;6.56;90.10;99720.39;4241493;82;21044;-82
2021/11/14 13:44:47;;;;;;;92.30;43.83;;;;;;;6.52;90.15;99718.89;4235682;82;21157;-82
2021/11/14 13:50:51;;;;;;;100.78;46.83;;;;;;;6.49;90.08;99726.35;4241143;82;21036;-82
2021/11/14 13:56:53;;;;;;;107.43;49.13;;;;;;;6.45;90.01;99726.80;4238350;82;21044;-81
2021/11/14 14:02:54;;;;;;;93.67;42.75;;;;;;;6.39;89.93;99732.97;4237042;82;21051;-82
2021/11/14 14:08:58;;;;;;;91.70;41.63;;;;;;;6.36;89.97;99750.50;4211240;83;21040;-82
2021/11/14 14:15:03;;;;;;;99.03;44.50;;;;;;;6.32;89.93;99746.30;4315303;81;21511;-82
2021/11/14 14:21:05;;;;;;;86.85;41.77;;;;;;;6.28;89.86;99756.23;4322186;81;21489;-82
2021/11/14 14:27:23;;;;;;;76.85;37.53;;;;;;;6.23;89.85;99767.28;4317410;81;21103;-82
2021/11/14 14:33:30;;;;;;;98.00;46.77;;;;;;;6.21;89.91;99770.91;4262840;81;21689;-82
2021/11/14 14:39:35;;;;;;;91.17;43.73;;;;;;;6.17;89.86;99769.18;4312677;81;21027;-82
2021/11/14 14:45:37;;;;;;;89.92;40.78;;;;;;;6.10;89.73;99760.17;4254356;82;21058;-83
2021/11/14 14:52:02;;;;;;;90.50;41.68;;;;;;;6.03;89.81;99768.02;4252507;81;21563;-82
2021/11/14 14:58:12;;;;;;;86.55;41.20;;;;;;;6.01;89.80;99780.36;4247841;83;22196;-82
2021/11/14 15:04:20;;;;;;;91.30;43.48;;;;;;;5.95;89.81;99789.81;4290580;81;21041;-82
2021/11/14 15:10:22;;;;;;;99.55;46.60;;;;;;;5.92;89.80;99786.39;4272898;81;21062;-82
2021/11/14 15:16:23;;;;;;;86.65;45.17;;;;;;;5.92;89.85;99791.83;4211334;83;21048;-82
2021/11/14 15:22:27;;;;;;;88.75;44.80;;;;;;;5.92;89.93;99798.03;4203370;83;21042;-82
2021/11/14 15:28:32;;;;;;;96.07;43.50;;;;;;;5.94;89.97;99809.94;4200988;83;21108;-82
2021/11/14 15:34:33;;;;;;;97.97;46.10;;;;;;;5.91;89.97;99816.02;4201751;83;22959;-82
2021/11/14 15:40:35;;;;;;;99.72;46.28;;;;;;;5.88;89.98;99823.47;4206022;83;21011;-82
2021/11/14 15:46:36;;;;;;;97.50;47.40;;;;;;;5.87;90.00;99837.61;4211091;83;21622;-82
2021/11/14 15:52:42;;;;;;;117.87;53.48;;;;;;;5.83;90.07;99842.66;4212996;83;21006;-83
2021/11/14 15:58:41;;;;;;;200.72;78.25;;;;;;;5.79;90.06;99852.00;4210778;83;21055;-83
2021/11/14 16:04:42;;;;;;;241.82;99.15;;;;;;;5.77;90.08;99854.78;4211061;83;21094;-83
2021/11/14 16:10:43;;;;;;;281.77;108.83;;;;;;;5.74;90.08;99865.75;4246228;83;21516;-82
2021/11/14 16:16:45;;;;;;;184.93;74.00;;;;;;;5.71;90.15;99871.83;4244852;83;21602;-83
2021/11/14 16:22:48;;;;;;;118.42;51.30;;;;;;;5.70;90.18;99877.00;4251215;83;21333;-83
2021/11/14 16:28:50;;;;;;;101.10;42.75;;;;;;;5.69;90.24;99886.28;4251087;83;21118;-83
2021/11/14 16:34:51;;;;;;;104.15;43.70;;;;;;;5.67;90.26;99890.45;4242640;83;20976;-83
2021/11/14 16:40:53;;;;;;;99.52;46.45;;;;;;;5.64;90.36;99900.02;4247175;83;21035;-82
2021/11/14 16:46:54;;;;;;;101.33;44.55;;;;;;;5.65;90.41;99906.27;4252926;83;21134;-83
2021/11/14 16:52:59;;;;;;;100.75;43.28;;;;;;;5.65;90.42;99916.58;4255287;83;21067;-83
2021/11/14 16:59:00;;;;;;;91.40;41.68;;;;;;;5.66;90.43;99913.28;4245275;83;21071;-83
2021/11/14 17:05:01;;;;;;;103.32;45.12;;;;;;;5.64;90.55;99919.59;4251208;83;21150;-83
2021/11/14 17:11:03;;;;;;;102.32;48.25;;;;;;;5.63;90.51;99923.44;4262600;83;21133;-82
2021/11/14 17:17:05;;;;;;;110.83;49.38;;;;;;;5.63;90.58;99927.51;4249547;83;21409;-83
2021/11/14 17:23:06;;;;;;;105.45;47.60;;;;;;;5.61;90.61;99929.73;4252744;83;21517;-83
2021/11/14 17:29:08;;;;;;;99.97;47.35;;;;;;;5.60;90.66;99937.11;4248243;83;21012;-82
2021/11/14 17:35:10;;;;;;;101.60;47.35;;;;;;;5.60;90.67;99942.54;4251621;83;21463;-83
2021/11/14 17:41:11;;;;;;;106.32;51.73;;;;;;;5.60;90.78;99946.61;4245220;83;21047;-83
2021/11/14 17:47:13;;;;;;;94.45;43.30;;;;;;;5.60;90.79;99946.61;4243745;83;21037;-82
2021/11/14 17:53:17;;;;;;;91.10;42.00;;;;;;;5.61;90.74;99959.06;4247862;83;21086;-83
2021/11/14 17:59:18;;;;;;;92.55;42.10;;;;;;;5.59;90.79;99957.22;4245421;83;21501;-83
2021/11/14 18:05:25;;;;;;;90.72;43.42;;;;;;;5.57;90.84;99967.62;4132808;83;10000052;-83
2021/11/14 18:11:27;;;;;;;90.67;42.88;;;;;;;5.57;90.96;99970.89;4258103;83;20992;-82
2021/11/14 18:17:29;;;;;;;86.00;41.90;;;;;;;5.56;90.99;99977.45;4241786;83;21025;-84
2021/11/14 18:23:31;;;;;;;92.12;41.88;;;;;;;5.57;91.14;99977.13;4227206;83;20983;-83
2021/11/14 18:29:35;;;;;;;93.45;43.52;;;;;;;5.58;91.12;99971.92;4266492;83;21007;-83
2021/11/14 18:35:35;;;;;;;114.82;53.48;;;;;;;5.58;91.05;99984.16;4245820;83;21001;-83
2021/11/14 18:41:37;;;;;;;93.92;45.85;;;;;;;5.55;91.06;99979.91;4292985;83;21479;-83
2021/11/14 18:47:41;;;;;;;106.37;48.52;;;;;;;5.52;91.05;99989.50;4255320;83;21024;-83
2021/11/14 18:53:43;;;;;;;102.25;46.37;;;;;;;5.48;91.05;99987.16;4247278;83;21001;-83
2021/11/14 18:59:44;;;;;;;102.80;47.45;;;;;;;5.45;91.06;99988.38;4254544;83;21070;-83
2021/11/14 19:05:46;;;;;;;104.30;47.93;;;;;;;5.42;91.02;99990.37;4125921;83;10000020;-83
2021/11/14 19:12:26;;;;;;;97.65;47.03;;;;;;;5.39;91.07;99984.99;4285150;83;21610;-83
2021/11/14 19:18:27;;;;;;;110.32;50.33;;;;;;;5.38;91.18;99992.10;4231671;83;20971;-83
2021/11/14 19:24:30;;;;;;;120.08;51.98;;;;;;;5.36;91.17;99997.04;4243512;83;21414;-83
2021/11/14 19:30:33;;;;;;;129.38;56.15;;;;;;;5.34;91.35;99994.64;4251288;83;20987;-83
2021/11/14 19:36:42;;;;;;;116.10;51.98;;;;;;;5.35;91.35;99994.91;4243960;83;21047;-84
2021/11/14 19:42:42;;;;;;;112.80;49.45;;;;;;;5.33;91.42;99999.03;4235571;83;21925;-83
2021/11/14 19:48:44;;;;;;;98.47;46.53;;;;;;;5.32;91.52;100009.66;4238117;83;21836;-84
2021/11/14 20:01:39;;;;;;;102.97;48.33;;;;;;;5.32;91.64;100027.31;4246465;83;21898;-82
2021/11/14 20:07:43;;;;;;;96.12;47.38;;;;;;;5.31;91.73;100021.06;4153495;83;9999603;-84
2021/11/14 20:13:48;;;;;;;92.02;45.38;;;;;;;5.31;91.83;100021.65;4250291;83;21487;-83
2021/11/14 20:19:51;;;;;;;100.20;46.70;;;;;;;5.30;91.81;100031.70;4254933;83;21540;-83
2021/11/14 20:25:56;;;;;;;102.70;46.50;;;;;;;5.30;91.86;100025.45;4277594;81;21118;-83
2021/11/14 20:32:21;;;;;;;119.70;59.63;;;;;;;5.30;91.91;100020.84;4291327;81;21056;-83
2021/11/14 20:38:22;;;;;;;105.67;53.48;;;;;;;5.30;92.00;100019.48;4222655;83;21568;-83
2021/11/14 20:44:24;;;;;;;91.12;47.90;;;;;;;5.30;92.11;100023.55;4234269;83;21063;-83
2021/11/14 20:50:25;;;;;;;99.92;48.38;;;;;;;5.30;92.09;100032.24;4239549;82;21008;-83
2021/11/14 20:56:30;;;;;;;96.28;46.95;;;;;;;5.30;92.18;100055.32;4247863;82;21617;-83
2021/11/14 21:02:35;;;;;;;98.42;45.48;;;;;;;5.30;92.32;100048.53;4254755;82;21055;-84
2021/11/14 21:08:36;;;;;;;100.35;49.08;;;;;;;5.31;92.42;100046.08;4157571;81;10000372;-83
2021/11/14 21:14:39;;;;;;;98.10;48.00;;;;;;;5.33;92.49;100050.07;4263725;81;21006;-83
2021/11/14 21:21:11;;;;;;;99.13;47.58;;;;;;;5.32;92.45;100052.55;4264760;82;21066;-84
2021/11/14 21:27:13;;;;;;;97.30;47.85;;;;;;;5.30;92.48;100055.32;4262738;82;20979;-83
2021/11/14 21:33:32;;;;;;;97.33;46.83;;;;;;;5.28;92.66;100048.07;4241511;83;21934;-83
2021/11/14 21:39:30;;;;;;;97.88;48.95;;;;;;;5.27;92.65;100054.05;4263570;82;21050;-83
2021/11/14 21:45:33;;;;;;;104.83;52.83;;;;;;;5.25;92.64;100064.96;4249950;82;21024;-84
2021/11/14 21:51:35;;;;;;;108.60;50.80;;;;;;;5.23;92.72;100068.56;4261818;82;21046;-81
2021/11/14 21:57:37;;;;;;;113.88;52.35;;;;;;;5.21;92.86;100062.64;4262250;82;21027;-80
2021/11/14 22:03:38;;;;;;;116.90;53.00;;;;;;;5.19;93.12;100060.24;4265224;82;21068;-81
2021/11/14 22:09:40;;;;;;;121.13;55.28;;;;;;;5.20;93.09;100070.55;4250981;82;21000;-81
2021/11/14 22:15:41;;;;;;;114.05;54.45;;;;;;;5.17;93.20;100071.18;4251286;82;21563;-83
2021/11/14 22:21:42;;;;;;;129.63;56.75;;;;;;;5.14;93.22;100068.52;4266145;82;21062;-81
2021/11/14 22:27:44;;;;;;;124.12;56.10;;;;;;;5.13;93.37;100068.83;4264870;82;21020;-81
2021/11/14 22:34:01;;;;;;;116.00;54.38;;;;;;;5.10;93.35;100076.24;4261194;82;21047;-82
2021/11/14 22:40:10;;;;;;;115.47;54.45;;;;;;;5.07;93.50;100073.61;4265007;82;21034;-81
2021/11/14 22:46:22;;;;;;;122.22;54.05;;;;;;;5.06;93.60;100076.06;4268992;82;21032;-82
2021/11/14 22:52:23;;;;;;;127.38;54.60;;;;;;;5.04;93.66;100083.73;4254056;82;21016;-81
2021/11/14 22:58:25;;;;;;;123.55;55.48;;;;;;;5.02;93.82;100083.78;4258641;82;21007;-81
2021/11/14 23:04:27;;;;;;;115.52;52.30;;;;;;;5.01;93.87;100088.44;4255685;82;21491;-81
2021/11/14 23:10:28;;;;;;;128.53;53.90;;;;;;;5.01;94.10;100091.15;4262371;82;21099;-81
2021/11/14 23:16:29;;;;;;;129.40;53.92;;;;;;;5.02;94.19;100088.67;4262235;83;21699;-82
2021/11/14 23:22:31;;;;;;;121.92;53.78;;;;;;;5.01;94.21;100091.15;4194128;83;21023;-81
2021/11/14 23:28:33;;;;;;;131.63;54.67;;;;;;;5.02;94.43;100089.22;4272986;81;21043;-81
2021/11/14 23:34:34;;;;;;;125.45;54.50;;;;;;;5.00;94.40;100088.72;4284255;81;21589;-81
2021/11/14 23:40:36;;;;;;;130.27;55.10;;;;;;;4.99;94.46;100098.80;4276678;81;21554;-82
2021/11/14 23:46:37;;;;;;;124.67;53.95;;;;;;;4.97;94.60;100103.72;4276000;81;21042;-81
2021/11/14 23:52:39;;;;;;;110.17;51.00;;;;;;;4.96;94.87;100108.91;4259764;83;21036;-82
2021/11/14 23:58:41;;;;;;;119.45;51.60;;;;;;;4.96;94.89;100109.46;4280073;83;21082;-81
